Wagga Wagga, Australia
Current Conditions -  °F | °C
As of 7:00 PM on Friday 28 Nov 2014 (Local Time) from YSWG Reporting Station
Clear Clear  
Wind Chill: 84°   Ceiling: Unl
Heat Index: 84°   Visibility: 6mi
Dew Point: 34°   Wind: 3mph
Humidity: 16%   Direction: 130°SE
Pressure: 29.97"   Gusts: NA
Location:  35.11°S, 147.37°E
Report Text: YSWG 280800Z AUTO 13003KT 9999 // NCD 29/01 Q1015
Loading
Personal Weather Stations






























Interactive Weather Map New forecast layout! Learn more

10-Day Weather Forecast

Advertisements
Track Severe Weather on mobile